Time;durP1;ratioP1;P1;durP2;ratioP2;P2;SDS_P1;SDS_P2;PMS_P1;PMS_P2;Temp;Humidity;BMP_temperature;BMP_pressure;BME280_temperature;BME280_humidity;BME280_pressure;Samples;Min_cycle;Max_cycle;Signal;HPM_P1;HPM_P2
2022/06/27 00:00:33;;;;;;;2.25;0.82;;;;;;;12.40;100.00;99329.19;7394934;19;20022;-85
2022/06/27 00:03:00;;;;;;;1.75;0.40;;;;;;;12.37;100.00;99323.84;7395800;19;20010;-84
2022/06/27 00:05:26;;;;;;;0.20;0.20;;;;;;;12.32;100.00;99327.38;7395045;19;20014;-85
2022/06/27 00:07:52;;;;;;;0.43;0.43;;;;;;;12.28;100.00;99326.88;7392775;19;20021;-85
2022/06/27 00:10:18;;;;;;;2.45;0.73;;;;;;;12.25;100.00;99333.44;7395583;19;20041;-85
2022/06/27 00:12:44;;;;;;;1.30;0.32;;;;;;;12.26;100.00;99332.19;7395356;19;20054;-85
2022/06/27 00:15:11;;;;;;;0.85;0.32;;;;;;;12.30;100.00;99327.13;7394919;19;20028;-85
2022/06/27 00:17:38;;;;;;;4.05;0.40;;;;;;;12.33;100.00;99328.91;7391104;19;20022;-85
2022/06/27 00:20:05;;;;;;;0.25;0.20;;;;;;;12.39;100.00;99326.91;7397858;19;20014;-85
2022/06/27 00:22:31;;;;;;;0.35;0.35;;;;;;;12.45;100.00;99324.91;7393751;19;20085;-85
2022/06/27 00:24:57;;;;;;;1.23;0.90;;;;;;;12.48;100.00;99321.88;7394419;19;20356;-85
2022/06/27 00:27:23;;;;;;;7.70;0.50;;;;;;;12.50;100.00;99324.16;7391551;19;20014;-86
2022/06/27 00:29:50;;;;;;;0.15;0.15;;;;;;;12.54;100.00;99321.91;7396548;19;20422;-85
2022/06/27 00:32:16;;;;;;;0.40;0.20;;;;;;;12.59;100.00;99318.34;7393325;19;20401;-85
2022/06/27 00:34:43;;;;;;;0.30;0.30;;;;;;;12.64;100.00;99326.00;7397540;19;20026;-85
2022/06/27 00:37:10;;;;;;;7.57;0.95;;;;;;;12.71;100.00;99322.72;7392976;19;20011;-85
2022/06/27 00:39:36;;;;;;;1.98;0.40;;;;;;;12.79;100.00;99316.16;7395312;19;20006;-86
2022/06/27 00:42:02;;;;;;;4.90;0.68;;;;;;;12.87;100.00;99322.00;7392623;19;20021;-85
2022/06/27 00:44:34;;;;;;;0.32;0.20;;;;;;;12.94;100.00;99316.69;7391889;19;20396;-86
2022/06/27 00:47:01;;;;;;;1.15;0.47;;;;;;;13.03;100.00;99324.09;7392715;19;20026;-86
2022/06/27 00:49:28;;;;;;;0.15;0.15;;;;;;;13.11;100.00;99322.34;7394239;19;20018;-86
2022/06/27 00:51:54;;;;;;;0.10;0.10;;;;;;;13.19;100.00;99323.38;7393965;19;20033;-86
2022/06/27 00:54:22;;;;;;;0.20;0.20;;;;;;;13.29;100.00;99323.91;7393686;19;20014;-86
2022/06/27 00:56:50;;;;;;;2.75;0.32;;;;;;;13.37;100.00;99325.69;7392138;19;20397;-86
2022/06/27 00:59:16;;;;;;;0.43;0.43;;;;;;;13.48;100.00;99328.47;7396015;19;20011;-86
2022/06/27 01:01:43;;;;;;;0.20;0.10;;;;;;;13.53;100.00;99327.72;7393344;19;20018;-86
2022/06/27 01:04:09;;;;;;;0.40;0.20;;;;;;;13.56;100.00;99323.91;7393199;19;20025;-86
2022/06/27 01:06:36;;;;;;;0.22;0.15;;;;;;;13.69;100.00;99323.38;7391127;19;20023;-86
2022/06/27 01:09:03;;;;;;;3.83;0.25;;;;;;;13.79;100.00;99318.28;7394657;19;20477;-85
2022/06/27 01:11:30;;;;;;;0.10;0.10;;;;;;;13.88;100.00;99318.03;7391382;19;20010;-85
2022/06/27 01:13:56;;;;;;;0.47;0.35;;;;;;;13.94;100.00;99311.16;7391513;19;20011;-86
2022/06/27 01:16:23;;;;;;;1.92;0.73;;;;;;;13.96;100.00;99321.84;7392698;19;20026;-85
2022/06/27 01:18:50;;;;;;;0.20;0.15;;;;;;;13.97;100.00;99314.97;7393049;19;20014;-86
2022/06/27 01:21:21;;;;;;;11.98;0.63;;;;;;;14.01;100.00;99329.47;7392002;19;20021;-85
2022/06/27 01:23:48;;;;;;;0.68;0.40;;;;;;;14.00;100.00;99323.09;7392543;19;20043;-85
2022/06/27 01:26:14;;;;;;;0.20;0.20;;;;;;;14.09;100.00;99327.66;7391714;19;20485;-86
2022/06/27 01:28:41;;;;;;;0.15;0.15;;;;;;;14.13;100.00;99325.38;7391499;19;20018;-86
2022/06/27 01:31:11;;;;;;;0.10;0.10;;;;;;;14.14;100.00;99313.63;7392048;19;20352;-86
2022/06/27 01:33:37;;;;;;;3.95;0.40;;;;;;;14.14;100.00;99319.25;7392405;19;20010;-86
2022/06/27 01:38:55;;;;;;;0.10;0.10;;;;;;;14.18;100.00;99324.59;7392529;19;20006;-85
2022/06/27 01:41:22;;;;;;;2.65;0.35;;;;;;;14.07;100.00;99321.81;7396835;19;20010;-85
2022/06/27 01:43:49;;;;;;;0.20;0.20;;;;;;;14.07;100.00;99319.78;7397923;19;20026;-85
2022/06/27 01:46:16;;;;;;;0.10;0.10;;;;;;;14.06;100.00;99315.44;7396060;19;20460;-85
2022/06/27 01:48:43;;;;;;;0.52;0.38;;;;;;;14.03;100.00;99319.28;7397605;19;20660;-84
2022/06/27 01:51:10;;;;;;;3.72;0.98;;;;;;;13.99;100.00;99332.75;7398099;19;20014;-85
2022/06/27 01:53:37;;;;;;;0.10;0.10;;;;;;;13.99;100.00;99329.22;7397313;19;20022;-85
2022/06/27 01:56:04;;;;;;;1.42;0.25;;;;;;;13.92;100.00;99329.72;7396677;19;20082;-85
2022/06/27 01:58:35;;;;;;;0.20;0.20;;;;;;;13.97;100.00;99317.78;7398408;19;20011;-85
2022/06/27 02:01:03;;;;;;;0.90;0.55;;;;;;;14.04;100.00;99322.81;7397700;19;20017;-85
2022/06/27 02:03:29;;;;;;;0.75;0.40;;;;;;;14.07;100.00;99321.81;7398488;19;20026;-85
2022/06/27 02:05:57;;;;;;;0.30;0.20;;;;;;;14.08;100.00;99315.69;7397187;19;20025;-85
2022/06/27 02:08:25;;;;;;;1.38;1.25;;;;;;;14.09;100.00;99325.63;7397371;19;20395;-84
2022/06/27 02:10:51;;;;;;;0.25;0.15;;;;;;;14.08;100.00;99320.53;7398590;19;20026;-85
2022/06/27 02:13:17;;;;;;;0.40;0.32;;;;;;;14.04;100.00;99325.63;7396852;19;20028;-85
2022/06/27 02:16:06;;;;;;;0.22;0.22;;;;;;;14.06;100.00;99323.06;7396647;19;20468;-85
2022/06/27 02:18:36;;;;;;;0.47;0.25;;;;;;;14.09;100.00;99317.22;7397948;19;20085;-85
2022/06/27 02:21:02;;;;;;;0.35;0.10;;;;;;;14.15;100.00;99320.00;7397005;19;20006;-85
2022/06/27 02:23:29;;;;;;;1.35;0.60;;;;;;;14.17;100.00;99328.66;7398375;19;20022;-86
2022/06/27 02:25:57;;;;;;;5.38;0.30;;;;;;;14.18;100.00;99321.78;7396360;19;20026;-84
2022/06/27 02:28:26;;;;;;;0.52;0.40;;;;;;;14.18;100.00;99330.97;7397002;19;20007;-85
2022/06/27 02:30:54;;;;;;;0.20;0.20;;;;;;;14.22;100.00;99325.84;7395997;19;20015;-85
2022/06/27 02:33:20;;;;;;;0.17;0.17;;;;;;;14.25;100.00;99329.69;7397457;19;20295;-86
2022/06/27 02:35:46;;;;;;;0.17;0.10;;;;;;;14.28;100.00;99328.63;7395491;19;20073;-87
2022/06/27 02:38:16;;;;;;;0.10;0.10;;;;;;;14.29;100.00;99325.34;7396794;19;20082;-86
2022/06/27 02:40:45;;;;;;;0.65;0.20;;;;;;;14.26;100.00;99322.78;7397667;19;20022;-86
2022/06/27 02:43:15;;;;;;;2.85;0.55;;;;;;;14.24;100.00;99330.94;7395701;19;20069;-86
2022/06/27 02:45:44;;;;;;;0.32;0.28;;;;;;;14.28;100.00;99320.22;7395967;19;20025;-86
2022/06/27 02:48:12;;;;;;;0.32;0.32;;;;;;;14.38;100.00;99324.28;7395955;19;20015;-86
2022/06/27 02:50:41;;;;;;;0.10;0.10;;;;;;;14.36;100.00;99324.03;7394839;19;20014;-86
2022/06/27 02:53:11;;;;;;;5.82;0.75;;;;;;;14.32;100.00;99317.94;7396240;19;20022;-85
2022/06/27 02:55:48;;;;;;;0.30;0.30;;;;;;;14.40;100.00;99324.56;7394752;19;20003;-86
2022/06/27 02:58:21;;;;;;;0.20;0.20;;;;;;;14.43;100.00;99323.53;7395527;19;20034;-86
2022/06/27 03:00:49;;;;;;;2.63;0.50;;;;;;;14.45;100.00;99329.38;7395204;19;20381;-85
2022/06/27 03:03:17;;;;;;;0.57;0.30;;;;;;;14.43;100.00;99326.31;7396019;19;20011;-86
2022/06/27 03:06:02;;;;;;;0.25;0.20;;;;;;;14.37;100.00;99319.97;7395347;19;20011;-85
2022/06/27 03:08:40;;;;;;;1.05;0.40;;;;;;;14.32;100.00;99323.56;7396575;19;20014;-85
2022/06/27 03:11:11;;;;;;;0.45;0.30;;;;;;;14.32;100.00;99317.94;7396039;19;20021;-86
2022/06/27 03:13:37;;;;;;;0.20;0.20;;;;;;;14.29;100.00;99319.00;7396279;19;20037;-86
2022/06/27 03:16:04;;;;;;;2.92;0.28;;;;;;;14.25;100.00;99322.00;7394800;19;20010;-86
2022/06/27 03:18:31;;;;;;;4.88;0.35;;;;;;;14.25;100.00;99318.47;7396764;19;20333;-85
2022/06/27 03:21:26;;;;;;;1.85;0.47;;;;;;;14.23;100.00;99324.56;7393468;19;20480;-87
2022/06/27 03:23:57;;;;;;;0.50;0.38;;;;;;;14.25;100.00;99324.06;7394346;19;20479;-86
2022/06/27 03:26:23;;;;;;;1.88;0.52;;;;;;;14.25;100.00;99318.47;7394383;19;20116;-86
2022/06/27 03:28:50;;;;;;;0.73;0.28;;;;;;;14.22;100.00;99322.28;7396503;19;20007;-86
2022/06/27 03:31:16;;;;;;;2.05;1.23;;;;;;;14.14;100.00;99313.63;7394838;19;20011;-86
2022/06/27 03:33:45;;;;;;;7.32;1.02;;;;;;;14.13;100.00;99302.97;7396590;19;20010;-86
2022/06/27 03:36:23;;;;;;;0.30;0.20;;;;;;;14.06;100.00;99306.28;7392852;19;20381;-85
2022/06/27 03:38:50;;;;;;;7.57;0.90;;;;;;;14.00;100.00;99316.72;7396302;19;20010;-86
2022/06/27 03:41:17;;;;;;;0.55;0.20;;;;;;;13.94;100.00;99321.59;7394004;19;20006;-86
2022/06/27 03:43:43;;;;;;;6.68;0.68;;;;;;;13.92;100.00;99312.94;7394158;19;20010;-86
2022/06/27 03:46:09;;;;;;;1.17;0.55;;;;;;;13.94;100.00;99319.56;7393350;19;20375;-86
2022/06/27 03:51:47;;;;;;;0.20;0.10;;;;;;;13.91;100.00;99317.00;7394061;19;20018;-86
2022/06/27 03:54:14;;;;;;;1.17;0.93;;;;;;;13.88;100.00;99313.19;7394525;19;20344;-87
2022/06/27 03:56:40;;;;;;;0.17;0.17;;;;;;;13.86;100.00;99317.78;7392969;19;20036;-86
2022/06/27 03:59:06;;;;;;;0.38;0.20;;;;;;;13.80;100.00;99312.19;7398262;19;20015;-88
2022/06/27 04:01:33;;;;;;;4.90;0.30;;;;;;;13.75;100.00;99315.78;7394678;19;20031;-87
2022/06/27 04:03:59;;;;;;;1.70;0.50;;;;;;;13.74;100.00;99313.47;7395772;19;20014;-89
2022/06/27 04:06:26;;;;;;;0.22;0.20;;;;;;;13.72;100.00;99304.81;7394656;19;20031;-88
2022/06/27 04:08:52;;;;;;;0.17;0.17;;;;;;;13.72;100.00;99311.19;7396044;19;20011;-89
2022/06/27 04:11:18;;;;;;;0.55;0.55;;;;;;;13.69;100.00;99312.97;7395143;19;20476;-88
2022/06/27 04:13:48;;;;;;;0.60;0.25;;;;;;;13.73;100.00;99315.50;7394245;19;20464;-89
2022/06/27 04:16:44;;;;;;;0.45;0.43;;;;;;;13.72;100.00;99325.16;7391801;19;20018;-88
2022/06/27 04:19:39;;;;;;;1.98;0.95;;;;;;;13.72;100.00;99322.38;7397434;19;20018;-88
2022/06/27 04:22:05;;;;;;;1.08;0.30;;;;;;;13.71;100.00;99318.03;7395387;19;20020;-88
2022/06/27 04:24:50;;;;;;;2.10;0.30;;;;;;;13.67;100.00;99323.91;7395156;19;20476;-88
2022/06/27 04:27:21;;;;;;;8.13;0.45;;;;;;;13.68;100.00;99328.25;7392374;19;20417;-89
2022/06/27 04:29:48;;;;;;;0.28;0.28;;;;;;;13.69;100.00;99334.56;7395573;19;20017;-89
2022/06/27 04:32:17;;;;;;;1.00;0.63;;;;;;;13.71;100.00;99332.03;7393254;19;20031;-88
2022/06/27 04:34:44;;;;;;;0.10;0.10;;;;;;;13.74;100.00;99330.25;7393928;19;20015;-88
2022/06/27 04:37:11;;;;;;;2.40;1.00;;;;;;;13.77;100.00;99334.84;7392490;19;20022;-88
2022/06/27 04:39:57;;;;;;;2.33;0.22;;;;;;;13.79;100.00;99333.06;7396620;19;20106;-88
2022/06/27 04:42:28;;;;;;;0.20;0.10;;;;;;;13.77;100.00;99324.41;7393782;19;20022;-90
2022/06/27 04:44:54;;;;;;;0.40;0.40;;;;;;;13.80;100.00;99328.19;7392938;19;20014;-88
2022/06/27 04:47:21;;;;;;;0.40;0.40;;;;;;;13.77;100.00;99329.25;7392316;19;20371;-88
2022/06/27 04:50:10;;;;;;;8.88;0.57;;;;;;;13.82;100.00;99336.88;7397321;19;20455;-89
2022/06/27 04:52:40;;;;;;;3.20;0.82;;;;;;;13.88;100.00;99332.03;7393516;19;20080;-90
2022/06/27 04:55:08;;;;;;;7.40;0.85;;;;;;;13.90;100.00;99335.09;7394240;19;20022;-88
2022/06/27 04:57:42;;;;;;;0.20;0.10;;;;;;;13.90;100.00;99333.06;7391961;19;20015;-89
2022/06/27 05:00:12;;;;;;;0.47;0.20;;;;;;;13.92;100.00;99340.94;7398384;19;20086;-89
2022/06/27 05:03:01;;;;;;;2.42;0.50;;;;;;;13.93;100.00;99334.81;7393517;19;20081;-87
2022/06/27 05:05:29;;;;;;;19.30;0.80;;;;;;;13.93;100.00;99337.63;7392753;19;20037;-88
2022/06/27 05:07:57;;;;;;;0.50;0.50;;;;;;;13.92;100.00;99338.91;7390778;19;20011;-88
2022/06/27 05:10:24;;;;;;;4.43;0.98;;;;;;;13.95;100.00;99337.09;7395560;19;20024;-88
2022/06/27 05:12:50;;;;;;;1.23;0.40;;;;;;;13.95;100.00;99345.50;7392747;19;20476;-88
2022/06/27 05:15:18;;;;;;;4.07;0.60;;;;;;;13.98;100.00;99344.47;7391886;19;20352;-88
2022/06/27 05:17:45;;;;;;;0.20;0.20;;;;;;;13.97;100.00;99342.97;7390296;19;20082;-88
2022/06/27 05:20:12;;;;;;;5.57;0.65;;;;;;;14.01;100.00;99343.47;7396380;19;20007;-87
2022/06/27 05:22:39;;;;;;;0.60;0.38;;;;;;;14.01;100.00;99344.22;7392274;19;20238;-88
2022/06/27 05:25:07;;;;;;;0.40;0.40;;;;;;;14.08;100.00;99342.94;7392215;19;20010;-88
2022/06/27 05:27:35;;;;;;;1.00;0.28;;;;;;;14.13;100.00;99345.72;7390910;19;20025;-88
2022/06/27 05:30:04;;;;;;;4.20;0.85;;;;;;;14.17;100.00;99351.84;7394720;19;20011;-88
2022/06/27 05:32:31;;;;;;;9.00;2.00;;;;;;;14.21;100.00;99351.56;7391866;19;20021;-88
2022/06/27 05:34:58;;;;;;;7.05;1.02;;;;;;;14.24;100.00;99347.75;7395535;19;20264;-88
2022/06/27 05:37:25;;;;;;;16.27;3.33;;;;;;;14.24;100.00;99353.34;7390743;19;20025;-88
2022/06/27 05:39:51;;;;;;;1.45;0.95;;;;;;;14.24;100.00;99339.34;7394942;19;20011;-88
2022/06/27 05:42:18;;;;;;;1.40;0.82;;;;;;;14.26;100.00;99353.59;7391310;19;20025;-88
2022/06/27 05:44:45;;;;;;;10.98;1.48;;;;;;;14.30;100.00;99354.13;7390551;19;20014;-88
2022/06/27 05:47:12;;;;;;;3.60;0.38;;;;;;;14.35;100.00;99356.16;7389962;19;20042;-88
2022/06/27 05:50:04;;;;;;;6.97;1.55;;;;;;;14.41;100.00;99359.69;7393398;19;20011;-88
2022/06/27 05:52:31;;;;;;;6.85;1.00;;;;;;;14.48;100.00;99367.56;7391211;19;20022;-88
2022/06/27 05:54:59;;;;;;;2.75;0.52;;;;;;;14.52;100.00;99353.28;7391075;19;20015;-88
2022/06/27 05:57:27;;;;;;;0.30;0.20;;;;;;;14.50;100.00;99362.22;7389190;19;20022;-87
2022/06/27 05:59:55;;;;;;;3.13;1.45;;;;;;;14.58;100.00;99366.00;7394862;19;20077;-88
2022/06/27 06:02:23;;;;;;;4.03;0.40;;;;;;;14.63;100.00;99365.22;7390413;19;20029;-87
2022/06/27 06:04:51;;;;;;;0.85;0.50;;;;;;;14.68;100.00;99356.06;7392054;19;20025;-88
2022/06/27 06:07:17;;;;;;;2.15;1.30;;;;;;;14.60;100.00;99366.25;7389116;19;20018;-88
2022/06/27 06:09:44;;;;;;;2.22;0.35;;;;;;;14.64;100.00;99366.75;7393279;19;20023;-88
2022/06/27 06:12:12;;;;;;;7.30;1.27;;;;;;;14.70;100.00;99364.69;7391002;19;20042;-88
2022/06/27 06:14:39;;;;;;;0.20;0.20;;;;;;;14.69;100.00;99363.16;7389634;19;20523;-87
2022/06/27 06:17:05;;;;;;;1.85;0.10;;;;;;;14.71;100.00;99366.22;7388577;19;20018;-87
2022/06/27 06:19:32;;;;;;;4.47;0.63;;;;;;;14.71;100.00;99352.19;7392821;19;20014;-87
2022/06/27 06:22:02;;;;;;;;;;;;;;;14.72;100.00;99366.97;7390662;19;20341;-86
2022/06/27 06:24:28;;;;;;;1.25;0.50;;;;;;;14.69;100.00;99362.41;7390128;19;19919;-86
2022/06/27 06:26:56;;;;;;;0.80;0.25;;;;;;;14.71;100.00;99360.59;7392913;19;20022;-86
2022/06/27 06:29:23;;;;;;;0.63;0.30;;;;;;;14.75;100.00;99372.31;7397668;19;20027;-86
2022/06/27 06:31:59;;;;;;;0.28;0.20;;;;;;;14.78;100.00;99368.47;7396382;19;20032;-86
2022/06/27 06:34:26;;;;;;;1.20;0.25;;;;;;;14.88;100.00;99369.69;7400249;19;20353;-86
2022/06/27 06:36:53;;;;;;;8.90;0.60;;;;;;;14.97;100.00;99366.59;7394872;19;20029;-85
2022/06/27 06:39:19;;;;;;;0.30;0.10;;;;;;;14.91;100.00;99374.28;7400514;19;20018;-87
2022/06/27 06:41:46;;;;;;;1.15;0.85;;;;;;;15.01;100.00;99369.13;7396512;19;20015;-86
2022/06/27 06:44:12;;;;;;;3.80;0.73;;;;;;;15.03;100.00;99380.59;7395873;19;20403;-86
2022/06/27 06:46:41;;;;;;;2.90;0.40;;;;;;;15.07;100.00;99381.09;7395174;19;20028;-86
2022/06/27 06:49:13;;;;;;;1.95;1.10;;;;;;;15.09;100.00;99373.66;7398446;19;20035;-86
2022/06/27 06:51:42;;;;;;;1.73;0.20;;;;;;;15.19;100.00;99372.09;7397926;19;20026;-86
2022/06/27 06:54:12;;;;;;;6.13;0.35;;;;;;;15.29;100.00;99385.81;7396780;19;20041;-87
2022/06/27 06:56:39;;;;;;;6.63;0.50;;;;;;;15.30;100.00;99384.53;7396987;19;20185;-86
2022/06/27 06:59:06;;;;;;;7.22;0.60;;;;;;;15.37;100.00;99395.19;7398647;19;20325;-87
2022/06/27 07:01:33;;;;;;;0.68;0.35;;;;;;;15.30;100.00;99392.94;7398429;19;20041;-86
2022/06/27 07:04:00;;;;;;;4.97;0.98;;;;;;;15.28;100.00;99407.50;7396921;19;20595;-86
2022/06/27 07:06:28;;;;;;;0.20;0.20;;;;;;;15.22;100.00;99401.16;7394589;19;20038;-87
2022/06/27 07:08:56;;;;;;;4.00;0.20;;;;;;;15.12;100.00;99395.06;7396905;19;20015;-87
2022/06/27 07:11:31;;;;;;;0.10;0.10;;;;;;;15.13;100.00;99390.25;7395979;19;20011;-86
2022/06/27 07:13:58;;;;;;;0.10;0.10;;;;;;;15.24;100.00;99400.63;7396887;19;20348;-87
2022/06/27 07:16:26;;;;;;;0.73;0.20;;;;;;;15.41;100.00;99398.50;7396185;19;20018;-87
2022/06/27 07:18:54;;;;;;;1.75;0.35;;;;;;;15.42;100.00;99397.22;7399250;19;20019;-86
2022/06/27 07:21:21;;;;;;;0.40;0.20;;;;;;;15.42;100.00;99400.78;7395604;19;20007;-86
2022/06/27 07:23:48;;;;;;;0.45;0.20;;;;;;;15.38;100.00;99413.53;7395724;19;20014;-86
2022/06/27 07:26:17;;;;;;;0.22;0.22;;;;;;;15.32;100.00;99407.22;7394896;19;20438;-87
2022/06/27 07:28:45;;;;;;;0.50;0.30;;;;;;;15.35;100.00;99411.78;7395877;19;20016;-87
2022/06/27 07:31:12;;;;;;;1.45;0.30;;;;;;;15.38;100.00;99416.34;7397494;19;20014;-85
2022/06/27 07:33:41;;;;;;;0.38;0.20;;;;;;;15.42;100.00;99411.25;7397528;19;20798;-85
2022/06/27 07:36:08;;;;;;;0.10;0.10;;;;;;;15.49;100.00;99410.72;7395146;19;20393;-85
2022/06/27 07:38:41;;;;;;;0.75;0.30;;;;;;;15.55;100.00;99420.63;7392527;19;20029;-85
2022/06/27 07:41:09;;;;;;;0.32;0.32;;;;;;;15.64;100.00;99423.09;7396126;19;20014;-84
2022/06/27 07:43:37;;;;;;;0.57;0.10;;;;;;;15.67;100.00;99421.31;7393846;19;20360;-83
2022/06/27 07:46:05;;;;;;;0.10;0.10;;;;;;;15.66;100.00;99408.53;7393458;19;20090;-84
2022/06/27 07:48:31;;;;;;;0.10;0.00;;;;;;;15.52;100.00;99420.91;7394511;19;20038;-84
2022/06/27 07:50:58;;;;;;;0.30;0.25;;;;;;;15.41;100.00;99420.94;7391506;19;20383;-84
2022/06/27 07:53:25;;;;;;;0.30;0.10;;;;;;;15.44;100.00;99425.56;7395816;19;20014;-84
2022/06/27 07:55:54;;;;;;;7.07;0.43;;;;;;;15.51;100.00;99427.78;7393490;19;20020;-85
2022/06/27 07:58:33;;;;;;;0.10;0.10;;;;;;;15.59;100.00;99428.78;7394754;19;20009;-85
2022/06/27 08:01:02;;;;;;;0.20;0.20;;;;;;;15.71;100.00;99427.41;7393948;19;20480;-85
2022/06/27 08:03:41;;;;;;;0.63;0.10;;;;;;;15.81;100.00;99425.78;7396124;19;20287;-85
2022/06/27 08:06:15;;;;;;;1.35;0.43;;;;;;;15.96;100.00;99431.06;7393116;19;20093;-85
2022/06/27 08:08:55;;;;;;;0.10;0.10;;;;;;;16.05;100.00;99439.91;7396312;19;20086;-84
2022/06/27 08:11:23;;;;;;;0.20;0.10;;;;;;;16.06;100.00;99435.81;7393048;19;20019;-86
2022/06/27 08:13:52;;;;;;;0.40;0.30;;;;;;;16.16;100.00;99436.22;7395304;19;20021;-86
2022/06/27 08:16:20;;;;;;;0.57;0.10;;;;;;;16.16;100.00;99428.56;7395064;19;20022;-86
2022/06/27 08:18:48;;;;;;;0.10;0.10;;;;;;;16.14;100.00;99430.38;7394612;19;20424;-86
2022/06/27 08:21:17;;;;;;;2.50;0.20;;;;;;;16.15;100.00;99427.06;7394816;19;20026;-86
2022/06/27 08:23:44;;;;;;;6.07;0.65;;;;;;;16.17;100.00;99440.56;7393286;19;20472;-86
2022/06/27 08:26:12;;;;;;;0.10;0.10;;;;;;;16.12;100.00;99436.53;7396697;19;20039;-85
2022/06/27 08:28:40;;;;;;;0.47;0.20;;;;;;;15.96;100.00;99448.66;7396405;19;20014;-84
2022/06/27 08:31:08;;;;;;;1.38;0.47;;;;;;;15.81;100.00;99448.25;7394758;19;20011;-84
2022/06/27 08:33:35;;;;;;;0.10;0.10;;;;;;;15.80;100.00;99453.13;7393838;19;20092;-83
2022/06/27 08:36:03;;;;;;;0.10;0.00;;;;;;;15.74;100.00;99460.06;7391300;19;20540;-83
2022/06/27 08:38:40;;;;;;;6.43;0.20;;;;;;;15.75;100.00;99456.72;7393221;19;20365;-83
2022/06/27 08:41:07;;;;;;;0.10;0.10;;;;;;;15.82;100.00;99470.22;7391721;19;20358;-83
2022/06/27 08:43:34;;;;;;;0.10;0.10;;;;;;;15.77;100.00;99473.03;7391857;19;20006;-83
2022/06/27 08:46:00;;;;;;;0.93;0.10;;;;;;;15.67;100.00;99474.66;7391572;19;20411;-82
2022/06/27 08:48:28;;;;;;;0.10;0.00;;;;;;;15.58;100.00;99474.94;7393387;19;20015;-83
2022/06/27 08:50:57;;;;;;;0.10;0.10;;;;;;;15.54;100.00;99485.69;7390826;19;20006;-83
2022/06/27 08:53:25;;;;;;;0.10;0.00;;;;;;;15.51;100.00;99486.72;7393277;19;20015;-83
2022/06/27 08:55:51;;;;;;;0.13;0.08;;;;;;;15.49;100.00;99486.47;7392632;19;20415;-83
2022/06/27 08:58:19;;;;;;;0.47;0.13;;;;;;;15.57;100.00;99487.47;7391806;19;20011;-83
2022/06/27 09:00:45;;;;;;;0.30;0.10;;;;;;;15.74;100.00;99488.13;7393314;19;20018;-83
2022/06/27 09:03:13;;;;;;;0.10;0.10;;;;;;;16.00;100.00;99494.09;7393356;19;20043;-83
2022/06/27 09:05:40;;;;;;;1.67;0.22;;;;;;;16.05;100.00;99498.16;7391373;19;20018;-84
2022/06/27 09:08:07;;;;;;;0.10;0.10;;;;;;;15.89;100.00;99488.56;7392333;19;20029;-84
2022/06/27 09:10:42;;;;;;;0.10;0.10;;;;;;;15.85;100.00;99497.22;7391347;19;20015;-84
2022/06/27 09:13:11;;;;;;;0.10;0.10;;;;;;;15.91;100.00;99491.59;7392711;19;20015;-84
2022/06/27 09:15:37;;;;;;;0.65;0.10;;;;;;;16.14;100.00;99498.56;7390964;19;20006;-84
2022/06/27 09:18:06;;;;;;;2.53;0.13;;;;;;;16.31;100.00;99490.00;7390202;19;20563;-84
2022/06/27 09:20:59;;;;;;;0.10;0.10;;;;;;;16.30;100.00;99494.88;7391040;19;20014;-84
2022/06/27 09:23:39;;;;;;;0.20;0.10;;;;;;;16.27;100.00;99498.72;7391179;19;20018;-84
2022/06/27 09:26:23;;;;;;;0.32;0.30;;;;;;;16.20;100.00;99495.72;7390340;19;20018;-84
2022/06/27 09:29:03;;;;;;;0.45;0.20;;;;;;;16.17;100.00;99505.19;7391972;19;20022;-85
2022/06/27 09:31:45;;;;;;;0.10;0.00;;;;;;;16.07;100.00;99507.56;7390084;19;20023;-85
2022/06/27 09:34:18;;;;;;;7.22;0.40;;;;;;;15.86;100.00;99506.44;7393631;19;20055;-85
2022/06/27 09:36:57;;;;;;;0.28;0.10;;;;;;;15.78;100.00;99511.09;7391449;19;20022;-84
2022/06/27 09:39:30;;;;;;;0.20;0.10;;;;;;;15.72;100.00;99524.41;7395031;19;20019;-85
2022/06/27 09:41:58;;;;;;;1.00;0.28;;;;;;;15.66;100.00;99523.63;7392646;19;20042;-85
2022/06/27 09:44:29;;;;;;;0.47;0.30;;;;;;;15.56;100.00;99517.59;7390977;19;20384;-85
2022/06/27 09:47:11;;;;;;;0.30;0.30;;;;;;;15.60;100.00;99525.72;7389492;19;20037;-85
2022/06/27 09:49:39;;;;;;;0.80;0.50;;;;;;;15.66;100.00;99526.44;7392749;19;20471;-85
2022/06/27 09:52:11;;;;;;;0.40;0.22;;;;;;;15.71;100.00;99539.69;7391948;19;20010;-85
2022/06/27 09:54:40;;;;;;;0.40;0.10;;;;;;;15.70;100.00;99538.19;7390445;19;20345;-86
2022/06/27 09:57:08;;;;;;;0.10;0.00;;;;;;;15.76;100.00;99542.50;7389212;19;20026;-86
2022/06/27 09:59:36;;;;;;;6.03;0.20;;;;;;;15.79;100.00;99547.06;7394741;19;20013;-86
2022/06/27 10:02:04;;;;;;;2.28;0.30;;;;;;;15.74;100.00;99555.53;7397264;19;20078;-86
2022/06/27 10:04:32;;;;;;;0.30;0.10;;;;;;;15.62;100.00;99545.63;7398817;19;20014;-86
2022/06/27 10:07:02;;;;;;;1.52;0.57;;;;;;;15.57;100.00;99552.03;7396331;19;20026;-85
2022/06/27 10:09:30;;;;;;;0.93;0.17;;;;;;;15.54;100.00;99550.25;7400647;19;20007;-85
2022/06/27 10:12:20;;;;;;;0.35;0.10;;;;;;;15.48;100.00;99555.13;7397093;19;20416;-85
2022/06/27 10:15:09;;;;;;;0.10;0.10;;;;;;;15.34;100.00;99558.97;7397805;19;20028;-85
2022/06/27 10:17:41;;;;;;;1.60;0.15;;;;;;;15.24;100.00;99572.53;7396116;19;20010;-85
2022/06/27 10:20:12;;;;;;;0.57;0.15;;;;;;;15.15;100.00;99562.34;7400322;19;20010;-85
2022/06/27 10:22:39;;;;;;;0.45;0.10;;;;;;;15.08;100.00;99562.09;7396498;19;20011;-85
2022/06/27 10:25:27;;;;;;;0.50;0.30;;;;;;;15.02;100.00;99567.75;7398429;19;20055;-84
2022/06/27 10:28:18;;;;;;;1.45;0.38;;;;;;;15.05;100.00;99568.75;7395639;19;20010;-84
2022/06/27 10:30:58;;;;;;;0.25;0.17;;;;;;;15.23;100.00;99570.22;7395276;19;20014;-84
2022/06/27 10:33:27;;;;;;;3.47;0.70;;;;;;;15.38;100.00;99568.66;7399197;19;20015;-83
2022/06/27 10:36:03;;;;;;;0.13;0.13;;;;;;;15.41;100.00;99575.28;7397066;19;20360;-83
2022/06/27 10:38:39;;;;;;;0.10;0.10;;;;;;;15.32;100.00;99581.94;7398940;19;20046;-83
2022/06/27 10:41:07;;;;;;;0.28;0.10;;;;;;;15.23;100.00;99564.59;7395862;19;20022;-84
2022/06/27 10:43:39;;;;;;;0.50;0.30;;;;;;;15.16;100.00;99597.53;7395867;19;20010;-84
2022/06/27 10:46:11;;;;;;;4.32;0.20;;;;;;;15.03;100.00;99604.94;7396287;19;20030;-84
2022/06/27 10:48:42;;;;;;;0.10;0.10;;;;;;;14.71;100.00;99612.09;7398502;19;20024;-86
2022/06/27 10:51:22;;;;;;;0.10;0.10;;;;;;;14.45;100.00;99617.94;7397365;19;20051;-84
2022/06/27 10:53:50;;;;;;;0.35;0.35;;;;;;;14.35;100.00;99613.88;7395600;19;20047;-84
2022/06/27 10:56:31;;;;;;;0.55;0.28;;;;;;;14.25;100.00;99609.78;7394696;19;20017;-84
2022/06/27 10:58:59;;;;;;;0.20;0.10;;;;;;;14.33;100.00;99611.59;7398929;19;20345;-84
2022/06/27 11:01:26;;;;;;;0.10;0.10;;;;;;;14.52;100.00;99617.47;7394850;19;20430;-84
2022/06/27 11:03:53;;;;;;;0.32;0.13;;;;;;;14.64;100.00;99624.59;7397476;19;20022;-85
2022/06/27 11:06:19;;;;;;;0.10;0.10;;;;;;;14.72;100.00;99620.03;7393983;19;20014;-84
2022/06/27 11:08:48;;;;;;;0.10;0.10;;;;;;;14.89;100.00;99615.16;7398100;19;20026;-84
2022/06/27 11:11:34;;;;;;;0.10;0.10;;;;;;;15.31;100.00;99618.94;7396946;19;20021;-85
2022/06/27 11:14:01;;;;;;;0.10;0.00;;;;;;;15.68;100.00;99613.75;7395607;19;20015;-85
2022/06/27 11:16:28;;;;;;;0.10;0.10;;;;;;;15.88;100.00;99616.19;7394282;19;20022;-85
2022/06/27 11:19:00;;;;;;;0.88;0.10;;;;;;;16.05;100.00;99614.06;7398511;19;20029;-85
2022/06/27 11:21:35;;;;;;;0.05;0.05;;;;;;;16.12;100.00;99613.53;7395251;19;20357;-85
2022/06/27 11:24:10;;;;;;;2.60;0.95;;;;;;;15.84;100.00;99622.09;7395729;19;20018;-85
2022/06/27 11:26:44;;;;;;;0.30;0.03;;;;;;;15.62;100.00;99627.03;7394099;19;20022;-85
2022/06/27 11:32:03;;;;;;;0.95;0.28;;;;;;;15.26;100.00;99644.94;7394863;19;20047;-85
2022/06/27 11:34:32;;;;;;;2.05;0.30;;;;;;;15.15;100.00;99654.91;7397785;19;20531;-85
2022/06/27 11:37:02;;;;;;;0.13;0.10;;;;;;;15.15;100.00;99657.72;7394759;19;20015;-85
2022/06/27 11:39:33;;;;;;;0.63;0.10;;;;;;;15.15;100.00;99660.53;7396594;19;20018;-83
2022/06/27 11:42:09;;;;;;;1.05;0.30;;;;;;;15.05;100.00;99667.66;7394004;19;20363;-84
2022/06/27 11:44:56;;;;;;;0.20;0.10;;;;;;;14.93;100.00;99674.56;7394086;19;20011;-83